sensor_id;sensor_type;location;lat;lon;timestamp;P1;P2;P0
84436;PMS1003;74664;45.620;5.138;2024-01-25T00:00:48;29.25;27.50;18.25
84436;PMS1003;74664;45.620;5.138;2024-01-25T00:03:15;35.75;35.75;23.00
84436;PMS1003;74664;45.620;5.138;2024-01-25T00:05:43;18.50;18.50;16.00
84436;PMS1003;74664;45.620;5.138;2024-01-25T00:08:10;44.25;38.50;24.25
84436;PMS1003;74664;45.620;5.138;2024-01-25T00:10:36;39.00;31.25;22.00
84436;PMS1003;74664;45.620;5.138;2024-01-25T00:13:03;23.00;21.00;15.75
84436;PMS1003;74664;45.620;5.138;2024-01-25T00:15:30;33.75;33.00;21.75
84436;PMS1003;74664;45.620;5.138;2024-01-25T00:17:56;27.50;26.75;18.25
84436;PMS1003;74664;45.620;5.138;2024-01-25T00:20:23;26.50;25.00;18.00
84436;PMS1003;74664;45.620;5.138;2024-01-25T00:22:51;24.50;23.25;16.50
84436;PMS1003;74664;45.620;5.138;2024-01-25T00:25:18;25.75;23.75;15.50
84436;PMS1003;74664;45.620;5.138;2024-01-25T00:27:45;21.25;21.25;14.00
84436;PMS1003;74664;45.620;5.138;2024-01-25T00:30:12;20.75;19.00;13.50
84436;PMS1003;74664;45.620;5.138;2024-01-25T00:32:39;17.50;16.00;12.25
84436;PMS1003;74664;45.620;5.138;2024-01-25T00:35:06;17.50;16.25;11.75
84436;PMS1003;74664;45.620;5.138;2024-01-25T00:37:35;18.50;16.00;13.00
84436;PMS1003;74664;45.620;5.138;2024-01-25T00:40:04;15.50;15.50;12.50
84436;PMS1003;74664;45.620;5.138;2024-01-25T00:42:34;17.75;17.50;13.75
84436;PMS1003;74664;45.620;5.138;2024-01-25T00:45:08;16.00;15.00;11.00
84436;PMS1003;74664;45.620;5.138;2024-01-25T00:47:36;15.50;15.50;12.00
84436;PMS1003;74664;45.620;5.138;2024-01-25T00:50:03;16.25;15.50;12.00
84436;PMS1003;74664;45.620;5.138;2024-01-25T00:52:31;17.50;17.00;12.00
84436;PMS1003;74664;45.620;5.138;2024-01-25T00:54:58;19.00;15.50;11.00
84436;PMS1003;74664;45.620;5.138;2024-01-25T00:57:27;21.75;16.75;12.50
84436;PMS1003;74664;45.620;5.138;2024-01-25T00:59:54;15.50;14.75;11.00
84436;PMS1003;74664;45.620;5.138;2024-01-25T01:02:22;11.25;9.75;7.00
84436;PMS1003;74664;45.620;5.138;2024-01-25T01:04:52;15.25;14.00;10.75
84436;PMS1003;74664;45.620;5.138;2024-01-25T01:07:22;15.00;15.00;11.00
84436;PMS1003;74664;45.620;5.138;2024-01-25T01:09:49;17.75;14.75;11.25
84436;PMS1003;74664;45.620;5.138;2024-01-25T01:12:15;12.50;12.50;9.75
84436;PMS1003;74664;45.620;5.138;2024-01-25T01:14:43;33.25;27.75;16.75
84436;PMS1003;74664;45.620;5.138;2024-01-25T01:17:10;15.75;14.25;11.25
84436;PMS1003;74664;45.620;5.138;2024-01-25T01:19:37;13.75;11.75;8.75
84436;PMS1003;74664;45.620;5.138;2024-01-25T01:22:03;14.00;12.00;8.75
84436;PMS1003;74664;45.620;5.138;2024-01-25T01:24:30;18.25;13.00;10.25
84436;PMS1003;74664;45.620;5.138;2024-01-25T01:26:57;12.25;11.75;10.00
84436;PMS1003;74664;45.620;5.138;2024-01-25T01:29:24;14.00;13.75;11.75
84436;PMS1003;74664;45.620;5.138;2024-01-25T01:31:52;12.75;11.00;8.00
84436;PMS1003;74664;45.620;5.138;2024-01-25T01:34:19;6.50;6.00;5.00
84436;PMS1003;74664;45.620;5.138;2024-01-25T01:36:45;11.50;11.00;8.00
84436;PMS1003;74664;45.620;5.138;2024-01-25T01:39:12;8.00;8.00;6.50
84436;PMS1003;74664;45.620;5.138;2024-01-25T01:41:39;10.25;8.00;6.50
84436;PMS1003;74664;45.620;5.138;2024-01-25T01:44:05;8.75;8.75;7.75
84436;PMS1003;74664;45.620;5.138;2024-01-25T01:46:33;8.00;8.00;6.25
84436;PMS1003;74664;45.620;5.138;2024-01-25T01:49:04;10.75;10.75;8.00
84436;PMS1003;74664;45.620;5.138;2024-01-25T01:51:31;9.50;8.00;6.50
84436;PMS1003;74664;45.620;5.138;2024-01-25T01:53:59;8.50;8.50;7.00
84436;PMS1003;74664;45.620;5.138;2024-01-25T01:56:27;12.25;10.50;8.00
84436;PMS1003;74664;45.620;5.138;2024-01-25T01:58:54;14.50;11.00;8.00
84436;PMS1003;74664;45.620;5.138;2024-01-25T02:01:23;9.00;8.00;7.00
84436;PMS1003;74664;45.620;5.138;2024-01-25T02:03:50;9.25;9.25;7.00
84436;PMS1003;74664;45.620;5.138;2024-01-25T02:06:18;12.75;11.50;9.50
84436;PMS1003;74664;45.620;5.138;2024-01-25T02:08:45;12.50;11.25;7.50
84436;PMS1003;74664;45.620;5.138;2024-01-25T02:11:13;23.75;22.25;15.75
84436;PMS1003;74664;45.620;5.138;2024-01-25T02:13:39;12.00;12.00;10.00
84436;PMS1003;74664;45.620;5.138;2024-01-25T02:16:07;17.25;16.00;11.00
84436;PMS1003;74664;45.620;5.138;2024-01-25T02:18:34;12.00;12.00;8.50
84436;PMS1003;74664;45.620;5.138;2024-01-25T02:21:02;12.50;12.50;9.00
84436;PMS1003;74664;45.620;5.138;2024-01-25T02:23:30;9.50;9.50;7.00
84436;PMS1003;74664;45.620;5.138;2024-01-25T02:25:57;14.25;12.00;8.25
84436;PMS1003;74664;45.620;5.138;2024-01-25T02:28:24;19.25;13.50;11.00
84436;PMS1003;74664;45.620;5.138;2024-01-25T02:30:50;8.75;8.75;6.50
84436;PMS1003;74664;45.620;5.138;2024-01-25T02:33:17;12.25;12.25;8.50
84436;PMS1003;74664;45.620;5.138;2024-01-25T02:35:44;10.00;10.00;8.00
84436;PMS1003;74664;45.620;5.138;2024-01-25T02:38:10;10.75;10.75;7.75
84436;PMS1003;74664;45.620;5.138;2024-01-25T02:40:39;13.25;12.25;9.25
84436;PMS1003;74664;45.620;5.138;2024-01-25T02:43:05;13.25;12.25;8.50
84436;PMS1003;74664;45.620;5.138;2024-01-25T02:45:32;13.00;12.25;11.00
84436;PMS1003;74664;45.620;5.138;2024-01-25T02:47:59;12.75;11.00;7.00
84436;PMS1003;74664;45.620;5.138;2024-01-25T02:50:27;13.00;13.00;10.75
84436;PMS1003;74664;45.620;5.138;2024-01-25T02:52:53;18.50;17.00;11.00
84436;PMS1003;74664;45.620;5.138;2024-01-25T02:55:20;12.00;11.75;8.50
84436;PMS1003;74664;45.620;5.138;2024-01-25T02:57:48;17.50;14.75;11.25
84436;PMS1003;74664;45.620;5.138;2024-01-25T03:00:15;13.75;13.75;11.00
84436;PMS1003;74664;45.620;5.138;2024-01-25T03:02:42;15.25;14.50;11.50
84436;PMS1003;74664;45.620;5.138;2024-01-25T03:05:09;17.25;14.75;10.25
84436;PMS1003;74664;45.620;5.138;2024-01-25T03:07:35;14.00;14.00;10.25
84436;PMS1003;74664;45.620;5.138;2024-01-25T03:10:02;15.25;15.25;9.25
84436;PMS1003;74664;45.620;5.138;2024-01-25T03:12:29;15.50;12.25;9.25
84436;PMS1003;74664;45.620;5.138;2024-01-25T03:14:57;16.25;15.75;11.50
84436;PMS1003;74664;45.620;5.138;2024-01-25T03:17:24;15.00;14.25;11.50
84436;PMS1003;74664;45.620;5.138;2024-01-25T03:19:51;12.75;12.00;10.25
84436;PMS1003;74664;45.620;5.138;2024-01-25T03:22:18;15.75;13.00;10.75
84436;PMS1003;74664;45.620;5.138;2024-01-25T03:24:45;17.00;17.00;12.25
84436;PMS1003;74664;45.620;5.138;2024-01-25T03:27:12;19.25;17.50;14.25
84436;PMS1003;74664;45.620;5.138;2024-01-25T03:29:40;18.00;14.50;11.50
84436;PMS1003;74664;45.620;5.138;2024-01-25T03:32:09;16.00;15.00;11.75
84436;PMS1003;74664;45.620;5.138;2024-01-25T03:34:36;19.75;18.00;13.00
84436;PMS1003;74664;45.620;5.138;2024-01-25T03:37:03;14.75;14.75;11.50
84436;PMS1003;74664;45.620;5.138;2024-01-25T03:39:29;16.75;16.75;12.00
84436;PMS1003;74664;45.620;5.138;2024-01-25T03:41:56;16.00;15.00;11.25
84436;PMS1003;74664;45.620;5.138;2024-01-25T03:44:23;16.00;16.00;12.25
84436;PMS1003;74664;45.620;5.138;2024-01-25T03:46:50;18.75;17.25;13.25
84436;PMS1003;74664;45.620;5.138;2024-01-25T03:49:18;20.25;16.75;12.50
84436;PMS1003;74664;45.620;5.138;2024-01-25T03:51:44;16.00;15.00;12.00
84436;PMS1003;74664;45.620;5.138;2024-01-25T03:54:11;12.75;12.75;10.00
84436;PMS1003;74664;45.620;5.138;2024-01-25T03:56:38;15.50;12.00;10.25
84436;PMS1003;74664;45.620;5.138;2024-01-25T03:59:05;17.25;17.25;13.00
84436;PMS1003;74664;45.620;5.138;2024-01-25T04:01:40;14.75;14.75;11.25
84436;PMS1003;74664;45.620;5.138;2024-01-25T04:04:07;16.00;15.50;12.50
84436;PMS1003;74664;45.620;5.138;2024-01-25T04:06:37;20.00;17.75;13.00
84436;PMS1003;74664;45.620;5.138;2024-01-25T04:09:04;17.00;16.50;12.25
84436;PMS1003;74664;45.620;5.138;2024-01-25T04:11:31;16.00;14.25;10.75
84436;PMS1003;74664;45.620;5.138;2024-01-25T04:13:58;16.50;16.50;12.25
84436;PMS1003;74664;45.620;5.138;2024-01-25T04:16:25;17.25;14.50;11.50
84436;PMS1003;74664;45.620;5.138;2024-01-25T04:18:52;13.75;13.75;12.75
84436;PMS1003;74664;45.620;5.138;2024-01-25T04:21:18;15.75;13.75;11.00
84436;PMS1003;74664;45.620;5.138;2024-01-25T04:23:47;21.00;17.50;12.75
84436;PMS1003;74664;45.620;5.138;2024-01-25T04:26:14;15.25;15.25;11.50
84436;PMS1003;74664;45.620;5.138;2024-01-25T04:28:41;16.50;15.75;12.25
84436;PMS1003;74664;45.620;5.138;2024-01-25T04:31:08;17.50;16.50;12.25
84436;PMS1003;74664;45.620;5.138;2024-01-25T04:33:35;17.25;15.50;12.00
84436;PMS1003;74664;45.620;5.138;2024-01-25T04:36:02;20.75;17.00;13.25
84436;PMS1003;74664;45.620;5.138;2024-01-25T04:38:29;22.50;18.00;13.50
84436;PMS1003;74664;45.620;5.138;2024-01-25T04:40:57;17.25;16.25;12.00
84436;PMS1003;74664;45.620;5.138;2024-01-25T04:43:23;12.50;12.50;11.00
84436;PMS1003;74664;45.620;5.138;2024-01-25T04:45:51;13.75;12.75;9.25
84436;PMS1003;74664;45.620;5.138;2024-01-25T04:48:18;16.50;16.50;12.00
84436;PMS1003;74664;45.620;5.138;2024-01-25T04:50:45;23.25;21.50;14.00
84436;PMS1003;74664;45.620;5.138;2024-01-25T04:53:11;24.75;17.25;13.00
84436;PMS1003;74664;45.620;5.138;2024-01-25T04:55:38;23.00;15.75;12.00
84436;PMS1003;74664;45.620;5.138;2024-01-25T04:58:06;23.00;21.00;16.25
84436;PMS1003;74664;45.620;5.138;2024-01-25T05:00:33;28.25;25.50;16.25
84436;PMS1003;74664;45.620;5.138;2024-01-25T05:03:00;22.75;18.50;14.25
84436;PMS1003;74664;45.620;5.138;2024-01-25T05:05:27;22.00;22.00;14.50
84436;PMS1003;74664;45.620;5.138;2024-01-25T05:07:53;22.75;18.25;15.00
84436;PMS1003;74664;45.620;5.138;2024-01-25T05:10:20;22.50;18.00;13.00
84436;PMS1003;74664;45.620;5.138;2024-01-25T05:12:48;26.75;23.00;16.00
84436;PMS1003;74664;45.620;5.138;2024-01-25T05:15:16;26.50;24.50;17.50
84436;PMS1003;74664;45.620;5.138;2024-01-25T05:17:42;29.00;27.50;20.75
84436;PMS1003;74664;45.620;5.138;2024-01-25T05:20:09;17.00;15.50;11.25
84436;PMS1003;74664;45.620;5.138;2024-01-25T05:22:38;22.75;18.25;12.50
84436;PMS1003;74664;45.620;5.138;2024-01-25T05:25:07;37.50;33.00;23.25
84436;PMS1003;74664;45.620;5.138;2024-01-25T05:27:34;27.25;26.50;18.00
84436;PMS1003;74664;45.620;5.138;2024-01-25T05:30:01;19.00;17.00;12.50
84436;PMS1003;74664;45.620;5.138;2024-01-25T05:32:31;19.75;19.00;13.75
84436;PMS1003;74664;45.620;5.138;2024-01-25T05:34:58;26.50;22.25;14.75
84436;PMS1003;74664;45.620;5.138;2024-01-25T05:37:24;18.50;18.50;12.50
84436;PMS1003;74664;45.620;5.138;2024-01-25T05:39:51;20.50;17.75;14.25
84436;PMS1003;74664;45.620;5.138;2024-01-25T05:42:18;24.50;21.75;16.50
84436;PMS1003;74664;45.620;5.138;2024-01-25T05:44:44;21.50;16.75;13.00
84436;PMS1003;74664;45.620;5.138;2024-01-25T05:47:11;17.00;13.25;11.00
84436;PMS1003;74664;45.620;5.138;2024-01-25T05:49:41;20.50;18.50;13.00
84436;PMS1003;74664;45.620;5.138;2024-01-25T05:52:07;16.25;15.50;12.00
84436;PMS1003;74664;45.620;5.138;2024-01-25T05:54:34;16.00;16.00;10.00
84436;PMS1003;74664;45.620;5.138;2024-01-25T05:57:01;26.25;22.25;17.75
84436;PMS1003;74664;45.620;5.138;2024-01-25T05:59:29;19.25;17.25;14.00
84436;PMS1003;74664;45.620;5.138;2024-01-25T06:01:55;20.50;19.25;13.00
84436;PMS1003;74664;45.620;5.138;2024-01-25T06:04:21;18.50;18.00;13.50
84436;PMS1003;74664;45.620;5.138;2024-01-25T06:06:49;19.25;18.00;14.25
84436;PMS1003;74664;45.620;5.138;2024-01-25T06:09:16;21.75;17.75;13.00
84436;PMS1003;74664;45.620;5.138;2024-01-25T06:11:43;21.25;17.25;12.00
84436;PMS1003;74664;45.620;5.138;2024-01-25T06:14:11;20.75;17.50;12.00
84436;PMS1003;74664;45.620;5.138;2024-01-25T06:16:38;15.25;15.25;11.75
84436;PMS1003;74664;45.620;5.138;2024-01-25T06:19:04;12.75;12.00;9.75
84436;PMS1003;74664;45.620;5.138;2024-01-25T06:21:31;14.00;14.00;11.25
84436;PMS1003;74664;45.620;5.138;2024-01-25T06:24:00;15.25;12.50;9.25
84436;PMS1003;74664;45.620;5.138;2024-01-25T06:26:27;12.50;12.50;9.50
84436;PMS1003;74664;45.620;5.138;2024-01-25T06:28:53;32.75;29.00;22.00
84436;PMS1003;74664;45.620;5.138;2024-01-25T06:31:20;16.50;16.50;12.00
84436;PMS1003;74664;45.620;5.138;2024-01-25T06:33:47;25.25;24.25;17.25
84436;PMS1003;74664;45.620;5.138;2024-01-25T06:36:15;18.75;17.50;13.50
84436;PMS1003;74664;45.620;5.138;2024-01-25T06:38:42;19.75;14.50;10.50
84436;PMS1003;74664;45.620;5.138;2024-01-25T06:41:10;20.00;17.75;12.75
84436;PMS1003;74664;45.620;5.138;2024-01-25T06:43:37;15.50;13.50;11.00
84436;PMS1003;74664;45.620;5.138;2024-01-25T06:46:05;17.25;16.00;12.00
84436;PMS1003;74664;45.620;5.138;2024-01-25T06:48:32;18.00;17.75;12.25
84436;PMS1003;74664;45.620;5.138;2024-01-25T06:50:58;18.00;16.75;11.25
84436;PMS1003;74664;45.620;5.138;2024-01-25T06:53:26;18.75;13.00;10.25
84436;PMS1003;74664;45.620;5.138;2024-01-25T06:55:53;17.75;13.00;10.75
84436;PMS1003;74664;45.620;5.138;2024-01-25T06:58:21;16.00;14.75;11.25
84436;PMS1003;74664;45.620;5.138;2024-01-25T07:00:47;21.00;21.00;14.25
84436;PMS1003;74664;45.620;5.138;2024-01-25T07:03:14;21.25;19.25;14.50
84436;PMS1003;74664;45.620;5.138;2024-01-25T07:05:41;17.00;13.25;11.50
84436;PMS1003;74664;45.620;5.138;2024-01-25T07:08:08;13.25;12.50;8.75
84436;PMS1003;74664;45.620;5.138;2024-01-25T07:10:38;12.50;12.50;10.00
84436;PMS1003;74664;45.620;5.138;2024-01-25T07:13:05;17.75;16.00;11.75
84436;PMS1003;74664;45.620;5.138;2024-01-25T07:15:34;13.00;11.50;8.75
84436;PMS1003;74664;45.620;5.138;2024-01-25T07:18:00;13.00;13.00;10.50
84436;PMS1003;74664;45.620;5.138;2024-01-25T07:20:28;10.25;10.25;7.00
84436;PMS1003;74664;45.620;5.138;2024-01-25T07:22:55;16.00;15.75;12.00
84436;PMS1003;74664;45.620;5.138;2024-01-25T07:25:22;16.25;13.00;9.75
84436;PMS1003;74664;45.620;5.138;2024-01-25T07:27:49;15.25;13.50;11.00
84436;PMS1003;74664;45.620;5.138;2024-01-25T07:30:16;17.50;12.00;9.25
84436;PMS1003;74664;45.620;5.138;2024-01-25T07:32:44;12.25;12.25;9.50
84436;PMS1003;74664;45.620;5.138;2024-01-25T07:35:11;12.75;10.50;8.00
84436;PMS1003;74664;45.620;5.138;2024-01-25T07:37:38;14.25;11.00;8.50
84436;PMS1003;74664;45.620;5.138;2024-01-25T07:40:06;13.00;13.00;9.50
84436;PMS1003;74664;45.620;5.138;2024-01-25T07:42:33;13.75;11.00;9.25
84436;PMS1003;74664;45.620;5.138;2024-01-25T07:45:00;12.00;11.75;8.00
84436;PMS1003;74664;45.620;5.138;2024-01-25T07:47:27;15.25;13.75;11.50
84436;PMS1003;74664;45.620;5.138;2024-01-25T07:49:55;11.75;11.75;8.00
84436;PMS1003;74664;45.620;5.138;2024-01-25T07:52:22;49.25;39.00;27.00
84436;PMS1003;74664;45.620;5.138;2024-01-25T07:54:48;18.75;18.75;13.75
84436;PMS1003;74664;45.620;5.138;2024-01-25T07:57:19;15.50;14.25;11.75
84436;PMS1003;74664;45.620;5.138;2024-01-25T07:59:46;15.50;14.50;11.00
84436;PMS1003;74664;45.620;5.138;2024-01-25T08:02:12;40.75;36.00;24.25
84436;PMS1003;74664;45.620;5.138;2024-01-25T08:04:39;29.00;24.50;17.00
84436;PMS1003;74664;45.620;5.138;2024-01-25T08:07:07;26.50;23.75;11.50
84436;PMS1003;74664;45.620;5.138;2024-01-25T08:09:34;17.25;14.25;9.25
84436;PMS1003;74664;45.620;5.138;2024-01-25T08:12:01;10.00;10.00;7.50
84436;PMS1003;74664;45.620;5.138;2024-01-25T08:14:30;15.50;12.00;8.75
84436;PMS1003;74664;45.620;5.138;2024-01-25T08:16:57;12.50;10.75;8.00
84436;PMS1003;74664;45.620;5.138;2024-01-25T08:19:23;12.00;12.00;8.00
84436;PMS1003;74664;45.620;5.138;2024-01-25T08:21:50;12.75;11.00;8.00
84436;PMS1003;74664;45.620;5.138;2024-01-25T08:24:18;15.25;11.75;8.25
84436;PMS1003;74664;45.620;5.138;2024-01-25T08:26:44;12.75;11.00;8.00
84436;PMS1003;74664;45.620;5.138;2024-01-25T08:29:11;12.50;12.50;8.25
84436;PMS1003;74664;45.620;5.138;2024-01-25T08:31:38;11.00;9.25;8.00
84436;PMS1003;74664;45.620;5.138;2024-01-25T08:34:05;9.50;6.75;6.00
84436;PMS1003;74664;45.620;5.138;2024-01-25T08:36:31;12.75;10.25;7.50
84436;PMS1003;74664;45.620;5.138;2024-01-25T08:38:58;12.25;8.75;6.50
84436;PMS1003;74664;45.620;5.138;2024-01-25T08:41:26;14.00;10.00;7.25
84436;PMS1003;74664;45.620;5.138;2024-01-25T08:43:53;15.25;13.00;10.00
84436;PMS1003;74664;45.620;5.138;2024-01-25T08:46:19;8.50;8.50;6.75
84436;PMS1003;74664;45.620;5.138;2024-01-25T08:48:46;10.00;9.00;7.00
84436;PMS1003;74664;45.620;5.138;2024-01-25T08:51:13;8.75;7.25;5.75
84436;PMS1003;74664;45.620;5.138;2024-01-25T08:53:40;12.00;10.00;6.50
84436;PMS1003;74664;45.620;5.138;2024-01-25T08:56:07;14.25;11.50;8.50
84436;PMS1003;74664;45.620;5.138;2024-01-25T08:58:35;7.75;7.75;6.00
84436;PMS1003;74664;45.620;5.138;2024-01-25T09:01:02;12.25;12.25;10.50
84436;PMS1003;74664;45.620;5.138;2024-01-25T09:03:28;10.00;8.75;7.00
84436;PMS1003;74664;45.620;5.138;2024-01-25T09:05:55;6.50;6.50;4.50
84436;PMS1003;74664;45.620;5.138;2024-01-25T09:08:22;8.00;7.25;5.75
84436;PMS1003;74664;45.620;5.138;2024-01-25T09:10:48;8.75;6.50;6.00
84436;PMS1003;74664;45.620;5.138;2024-01-25T09:13:15;7.00;7.00;4.50
84436;PMS1003;74664;45.620;5.138;2024-01-25T09:15:43;11.50;10.50;8.00
84436;PMS1003;74664;45.620;5.138;2024-01-25T09:18:12;7.50;7.50;6.50
84436;PMS1003;74664;45.620;5.138;2024-01-25T09:20:39;7.75;7.75;6.50
84436;PMS1003;74664;45.620;5.138;2024-01-25T09:23:05;12.00;7.75;5.50
84436;PMS1003;74664;45.620;5.138;2024-01-25T09:25:32;5.00;4.25;4.25
84436;PMS1003;74664;45.620;5.138;2024-01-25T09:27:59;11.25;9.25;6.25
84436;PMS1003;74664;45.620;5.138;2024-01-25T09:30:27;7.00;6.50;6.00
84436;PMS1003;74664;45.620;5.138;2024-01-25T09:32:58;12.00;7.00;5.00
84436;PMS1003;74664;45.620;5.138;2024-01-25T09:35:25;9.50;6.25;6.00
84436;PMS1003;74664;45.620;5.138;2024-01-25T09:37:51;3.50;3.50;3.00
84436;PMS1003;74664;45.620;5.138;2024-01-25T09:40:18;3.25;3.25;3.25
84436;PMS1003;74664;45.620;5.138;2024-01-25T09:42:46;4.50;4.50;3.75
84436;PMS1003;74664;45.620;5.138;2024-01-25T09:45:13;8.00;6.50;5.75
84436;PMS1003;74664;45.620;5.138;2024-01-25T09:47:43;8.25;6.75;3.75
84436;PMS1003;74664;45.620;5.138;2024-01-25T09:50:11;3.25;3.25;2.50
84436;PMS1003;74664;45.620;5.138;2024-01-25T09:52:38;4.25;4.25;3.50
84436;PMS1003;74664;45.620;5.138;2024-01-25T09:55:06;7.25;3.25;3.00
84436;PMS1003;74664;45.620;5.138;2024-01-25T09:57:35;6.00;4.25;3.25
84436;PMS1003;74664;45.620;5.138;2024-01-25T10:00:03;6.25;6.25;3.75
84436;PMS1003;74664;45.620;5.138;2024-01-25T10:02:36;6.00;6.00;4.25
84436;PMS1003;74664;45.620;5.138;2024-01-25T10:05:03;3.50;3.25;3.00
84436;PMS1003;74664;45.620;5.138;2024-01-25T10:07:39;7.25;7.00;5.00
84436;PMS1003;74664;45.620;5.138;2024-01-25T10:10:07;6.50;6.00;4.25
84436;PMS1003;74664;45.620;5.138;2024-01-25T10:12:34;6.75;4.50;3.50
84436;PMS1003;74664;45.620;5.138;2024-01-25T10:15:02;6.25;6.25;5.00
84436;PMS1003;74664;45.620;5.138;2024-01-25T10:17:30;7.75;6.50;5.25
84436;PMS1003;74664;45.620;5.138;2024-01-25T10:19:57;9.50;6.75;6.00
84436;PMS1003;74664;45.620;5.138;2024-01-25T10:22:24;4.50;4.00;3.00
84436;PMS1003;74664;45.620;5.138;2024-01-25T10:24:53;7.75;7.75;6.00
84436;PMS1003;74664;45.620;5.138;2024-01-25T10:27:20;5.50;5.50;3.75
84436;PMS1003;74664;45.620;5.138;2024-01-25T10:29:47;7.75;7.75;6.00
84436;PMS1003;74664;45.620;5.138;2024-01-25T10:32:15;9.75;8.50;7.00
84436;PMS1003;74664;45.620;5.138;2024-01-25T10:34:42;9.50;9.50;6.00
84436;PMS1003;74664;45.620;5.138;2024-01-25T10:37:11;8.00;8.00;6.50
84436;PMS1003;74664;45.620;5.138;2024-01-25T10:39:40;9.50;9.00;7.00
84436;PMS1003;74664;45.620;5.138;2024-01-25T10:42:09;13.00;11.25;8.50
84436;PMS1003;74664;45.620;5.138;2024-01-25T10:44:36;13.75;13.75;9.50
84436;PMS1003;74664;45.620;5.138;2024-01-25T10:47:02;11.00;10.25;7.75
84436;PMS1003;74664;45.620;5.138;2024-01-25T10:49:30;13.75;11.75;8.75
84436;PMS1003;74664;45.620;5.138;2024-01-25T10:51:58;12.25;10.25;8.00
84436;PMS1003;74664;45.620;5.138;2024-01-25T10:54:25;10.75;9.75;8.25
84436;PMS1003;74664;45.620;5.138;2024-01-25T10:56:52;9.00;9.00;8.00
84436;PMS1003;74664;45.620;5.138;2024-01-25T10:59:20;8.50;8.50;6.00
84436;PMS1003;74664;45.620;5.138;2024-01-25T11:01:50;10.00;10.00;7.00
84436;PMS1003;74664;45.620;5.138;2024-01-25T11:04:17;7.75;7.75;6.00
84436;PMS1003;74664;45.620;5.138;2024-01-25T11:06:45;6.75;6.75;4.00
84436;PMS1003;74664;45.620;5.138;2024-01-25T11:09:16;4.00;4.00;3.00
84436;PMS1003;74664;45.620;5.138;2024-01-25T11:11:44;7.00;7.00;4.00
84436;PMS1003;74664;45.620;5.138;2024-01-25T11:14:12;2.50;2.00;2.00
84436;PMS1003;74664;45.620;5.138;2024-01-25T11:16:40;4.50;3.25;2.75
84436;PMS1003;74664;45.620;5.138;2024-01-25T11:19:15;3.00;2.00;2.00
84436;PMS1003;74664;45.620;5.138;2024-01-25T11:21:43;1.00;1.00;0.75
84436;PMS1003;74664;45.620;5.138;2024-01-25T11:24:14;6.25;2.00;1.50
84436;PMS1003;74664;45.620;5.138;2024-01-25T11:26:42;1.25;1.25;1.25
84436;PMS1003;74664;45.620;5.138;2024-01-25T11:29:09;2.00;2.00;1.50
84436;PMS1003;74664;45.620;5.138;2024-01-25T11:31:36;2.00;1.25;1.00
84436;PMS1003;74664;45.620;5.138;2024-01-25T11:34:04;2.00;1.00;1.00
84436;PMS1003;74664;45.620;5.138;2024-01-25T11:36:31;3.00;3.00;2.50
84436;PMS1003;74664;45.620;5.138;2024-01-25T11:38:57;2.75;2.00;2.00
84436;PMS1003;74664;45.620;5.138;2024-01-25T11:41:24;1.25;1.25;1.00
84436;PMS1003;74664;45.620;5.138;2024-01-25T11:43:52;4.75;1.50;1.00
84436;PMS1003;74664;45.620;5.138;2024-01-25T11:46:18;1.75;1.00;1.00
84436;PMS1003;74664;45.620;5.138;2024-01-25T11:48:48;2.75;2.00;1.25
84436;PMS1003;74664;45.620;5.138;2024-01-25T11:51:15;1.00;1.00;0.50
84436;PMS1003;74664;45.620;5.138;2024-01-25T11:53:42;1.00;1.00;1.00
84436;PMS1003;74664;45.620;5.138;2024-01-25T11:56:10;2.00;2.00;1.50
84436;PMS1003;74664;45.620;5.138;2024-01-25T11:58:38;1.00;1.00;0.75
84436;PMS1003;74664;45.620;5.138;2024-01-25T12:01:06;0.50;0.50;0.50
84436;PMS1003;74664;45.620;5.138;2024-01-25T12:03:34;1.00;1.00;1.00
84436;PMS1003;74664;45.620;5.138;2024-01-25T12:06:02;2.75;1.50;1.00
84436;PMS1003;74664;45.620;5.138;2024-01-25T12:08:31;1.00;1.00;0.25
84436;PMS1003;74664;45.620;5.138;2024-01-25T12:11:04;1.00;1.00;0.00
84436;PMS1003;74664;45.620;5.138;2024-01-25T12:13:32;1.00;1.00;1.00
84436;PMS1003;74664;45.620;5.138;2024-01-25T12:16:00;2.00;2.00;1.00
84436;PMS1003;74664;45.620;5.138;2024-01-25T12:18:28;1.25;1.00;1.00
84436;PMS1003;74664;45.620;5.138;2024-01-25T12:20:54;2.00;2.00;2.00
84436;PMS1003;74664;45.620;5.138;2024-01-25T12:23:23;2.25;1.00;1.00
84436;PMS1003;74664;45.620;5.138;2024-01-25T12:25:59;1.75;1.75;1.75
84436;PMS1003;74664;45.620;5.138;2024-01-25T12:28:27;3.00;2.00;2.00
84436;PMS1003;74664;45.620;5.138;2024-01-25T12:30:54;2.00;2.00;1.00
84436;PMS1003;74664;45.620;5.138;2024-01-25T12:33:21;1.00;1.00;1.00
84436;PMS1003;74664;45.620;5.138;2024-01-25T12:35:47;1.00;1.00;0.75
84436;PMS1003;74664;45.620;5.138;2024-01-25T12:38:14;2.50;2.00;1.25
84436;PMS1003;74664;45.620;5.138;2024-01-25T12:40:42;2.00;2.00;2.00
84436;PMS1003;74664;45.620;5.138;2024-01-25T12:43:09;2.00;2.00;1.75
84436;PMS1003;74664;45.620;5.138;2024-01-25T12:45:36;1.50;1.50;1.00
84436;PMS1003;74664;45.620;5.138;2024-01-25T12:48:03;4.00;2.00;2.00
84436;PMS1003;74664;45.620;5.138;2024-01-25T12:50:31;3.00;3.00;2.25
84436;PMS1003;74664;45.620;5.138;2024-01-25T12:52:58;2.00;2.00;2.00
84436;PMS1003;74664;45.620;5.138;2024-01-25T12:55:27;2.00;2.00;1.00
84436;PMS1003;74664;45.620;5.138;2024-01-25T12:57:55;2.00;2.00;2.00
84436;PMS1003;74664;45.620;5.138;2024-01-25T13:00:21;1.25;1.25;1.00
84436;PMS1003;74664;45.620;5.138;2024-01-25T13:02:48;3.00;1.25;1.00
84436;PMS1003;74664;45.620;5.138;2024-01-25T13:05:19;0.00;0.00;0.00
84436;PMS1003;74664;45.620;5.138;2024-01-25T13:07:46;0.25;0.25;0.00
84436;PMS1003;74664;45.620;5.138;2024-01-25T13:10:13;0.00;0.00;0.00
84436;PMS1003;74664;45.620;5.138;2024-01-25T13:12:39;1.00;1.00;1.00
84436;PMS1003;74664;45.620;5.138;2024-01-25T13:15:08;0.00;0.00;0.00
84436;PMS1003;74664;45.620;5.138;2024-01-25T13:17:35;0.00;0.00;0.00
84436;PMS1003;74664;45.620;5.138;2024-01-25T13:20:02;0.00;0.00;0.00
84436;PMS1003;74664;45.620;5.138;2024-01-25T13:22:31;0.00;0.00;0.00
84436;PMS1003;74664;45.620;5.138;2024-01-25T13:24:58;0.00;0.00;0.00
84436;PMS1003;74664;45.620;5.138;2024-01-25T13:27:24;0.00;0.00;0.00
84436;PMS1003;74664;45.620;5.138;2024-01-25T13:29:54;0.00;0.00;0.00
84436;PMS1003;74664;45.620;5.138;2024-01-25T13:32:23;1.00;1.00;1.00
84436;PMS1003;74664;45.620;5.138;2024-01-25T13:34:49;0.00;0.00;0.00
84436;PMS1003;74664;45.620;5.138;2024-01-25T13:37:16;2.25;1.00;1.00
84436;PMS1003;74664;45.620;5.138;2024-01-25T13:39:43;1.00;0.75;0.00
84436;PMS1003;74664;45.620;5.138;2024-01-25T13:42:10;0.00;0.00;0.00
84436;PMS1003;74664;45.620;5.138;2024-01-25T13:44:36;1.00;1.00;1.00
84436;PMS1003;74664;45.620;5.138;2024-01-25T13:47:04;0.00;0.00;0.00
84436;PMS1003;74664;45.620;5.138;2024-01-25T13:49:32;0.25;0.00;0.00
84436;PMS1003;74664;45.620;5.138;2024-01-25T13:52:00;0.00;0.00;0.00
84436;PMS1003;74664;45.620;5.138;2024-01-25T13:54:27;0.00;0.00;0.00
84436;PMS1003;74664;45.620;5.138;2024-01-25T13:56:54;0.00;0.00;0.00
84436;PMS1003;74664;45.620;5.138;2024-01-25T13:59:20;0.00;0.00;0.00
84436;PMS1003;74664;45.620;5.138;2024-01-25T14:01:49;0.00;0.00;0.00